sensor_id;sensor_type;location;lat;lon;timestamp;temperature;humidity
15390;DHT22;7793;40.902;14.190;2022-09-23T07:38:55;22.90;41.20
15390;DHT22;7793;40.902;14.190;2022-09-23T07:41:22;23.00;41.60
15390;DHT22;7793;40.902;14.190;2022-09-23T07:43:51;23.00;41.70
15390;DHT22;7793;40.902;14.190;2022-09-23T07:46:16;23.10;41.60
15390;DHT22;7793;40.902;14.190;2022-09-23T07:48:37;23.10;41.20
15390;DHT22;7793;40.902;14.190;2022-09-23T07:50:58;23.20;41.40
15390;DHT22;7793;40.902;14.190;2022-09-23T07:53:20;23.20;41.40
15390;DHT22;7793;40.902;14.190;2022-09-23T07:55:41;23.30;41.50
15390;DHT22;7793;40.902;14.190;2022-09-23T07:58:01;23.30;41.50
15390;DHT22;7793;40.902;14.190;2022-09-23T08:00:22;23.30;41.40
15390;DHT22;7793;40.902;14.190;2022-09-23T08:02:43;23.30;41.40
15390;DHT22;7793;40.902;14.190;2022-09-23T08:05:10;23.40;41.50
15390;DHT22;7793;40.902;14.190;2022-09-23T08:07:31;23.40;41.50
15390;DHT22;7793;40.902;14.190;2022-09-23T08:09:54;23.40;41.10
15390;DHT22;7793;40.902;14.190;2022-09-23T08:12:16;23.40;41.20
15390;DHT22;7793;40.902;14.190;2022-09-23T08:14:37;23.30;41.20
15390;DHT22;7793;40.902;14.190;2022-09-23T08:16:58;23.30;41.40
15390;DHT22;7793;40.902;14.190;2022-09-23T08:19:20;23.30;41.50
15390;DHT22;7793;40.902;14.190;2022-09-23T08:21:41;23.30;41.20
15390;DHT22;7793;40.902;14.190;2022-09-23T08:24:02;23.30;41.10
15390;DHT22;7793;40.902;14.190;2022-09-23T08:26:23;23.40;41.30
15390;DHT22;7793;40.902;14.190;2022-09-23T08:28:45;23.30;39.80
15390;DHT22;7793;40.902;14.190;2022-09-23T08:31:07;23.20;39.70
15390;DHT22;7793;40.902;14.190;2022-09-23T08:33:29;23.20;39.20
15390;DHT22;7793;40.902;14.190;2022-09-23T08:35:50;23.20;39.00
15390;DHT22;7793;40.902;14.190;2022-09-23T08:38:11;23.20;39.00
15390;DHT22;7793;40.902;14.190;2022-09-23T08:40:39;23.30;39.70
15390;DHT22;7793;40.902;14.190;2022-09-23T08:43:03;23.30;40.00
15390;DHT22;7793;40.902;14.190;2022-09-23T08:45:26;23.40;40.10
15390;DHT22;7793;40.902;14.190;2022-09-23T08:48:03;23.40;40.20
15390;DHT22;7793;40.902;14.190;2022-09-23T08:50:39;23.40;40.10
15390;DHT22;7793;40.902;14.190;2022-09-23T08:53:02;23.40;40.00
15390;DHT22;7793;40.902;14.190;2022-09-23T08:55:47;23.40;40.00
15390;DHT22;7793;40.902;14.190;2022-09-23T09:04:14;23.40;39.80
15390;DHT22;7793;40.902;14.190;2022-09-23T09:06:17;23.40;40.10
15390;DHT22;7793;40.902;14.190;2022-09-23T09:08:39;23.50;41.40
15390;DHT22;7793;40.902;14.190;2022-09-23T09:11:01;23.40;40.80
15390;DHT22;7793;40.902;14.190;2022-09-23T09:15:55;23.40;40.90
15390;DHT22;7793;40.902;14.190;2022-09-23T09:18:19;23.50;42.00
15390;DHT22;7793;40.902;14.190;2022-09-23T09:20:53;23.50;43.30
15390;DHT22;7793;40.902;14.190;2022-09-23T09:23:21;23.50;43.30
15390;DHT22;7793;40.902;14.190;2022-09-23T09:25:44;23.50;42.60
15390;DHT22;7793;40.902;14.190;2022-09-23T09:28:49;23.50;42.60
15390;DHT22;7793;40.902;14.190;2022-09-23T09:30:58;23.50;42.20
15390;DHT22;7793;40.902;14.190;2022-09-23T09:33:22;23.50;42.40
15390;DHT22;7793;40.902;14.190;2022-09-23T09:38:13;23.50;42.80
15390;DHT22;7793;40.902;14.190;2022-09-23T09:40:35;23.50;42.30
15390;DHT22;7793;40.902;14.190;2022-09-23T09:43:03;23.50;42.70
15390;DHT22;7793;40.902;14.190;2022-09-23T09:50:10;23.50;42.60
15390;DHT22;7793;40.902;14.190;2022-09-23T09:52:33;23.50;42.70
15390;DHT22;7793;40.902;14.190;2022-09-23T09:57:33;23.50;42.70
15390;DHT22;7793;40.902;14.190;2022-09-23T09:59:56;23.50;42.50
15390;DHT22;7793;40.902;14.190;2022-09-23T10:02:28;23.60;42.80
15390;DHT22;7793;40.902;14.190;2022-09-23T10:04:54;23.50;42.30
15390;DHT22;7793;40.902;14.190;2022-09-23T10:07:16;23.50;42.20
15390;DHT22;7793;40.902;14.190;2022-09-23T10:09:47;23.60;42.60
15390;DHT22;7793;40.902;14.190;2022-09-23T10:12:10;23.60;42.60
15390;DHT22;7793;40.902;14.190;2022-09-23T10:14:35;23.60;42.50
15390;DHT22;7793;40.902;14.190;2022-09-23T10:17:00;23.60;42.10
15390;DHT22;7793;40.902;14.190;2022-09-23T10:19:28;23.60;42.10
15390;DHT22;7793;40.902;14.190;2022-09-23T10:21:52;23.60;41.90
15390;DHT22;7793;40.902;14.190;2022-09-23T10:24:20;23.60;42.10
15390;DHT22;7793;40.902;14.190;2022-09-23T10:26:43;23.60;41.70
15390;DHT22;7793;40.902;14.190;2022-09-23T10:34:33;23.60;42.10
15390;DHT22;7793;40.902;14.190;2022-09-23T10:37:01;23.70;42.10
15390;DHT22;7793;40.902;14.190;2022-09-23T10:39:23;23.70;42.60
15390;DHT22;7793;40.902;14.190;2022-09-23T10:42:16;23.70;42.20
15390;DHT22;7793;40.902;14.190;2022-09-23T10:45:08;23.70;42.40
15390;DHT22;7793;40.902;14.190;2022-09-23T10:57:50;23.70;41.90
15390;DHT22;7793;40.902;14.190;2022-09-23T11:13:02;23.80;43.00
15390;DHT22;7793;40.902;14.190;2022-09-23T11:38:39;23.80;42.30
15390;DHT22;7793;40.902;14.190;2022-09-23T11:43:37;23.90;42.30
15390;DHT22;7793;40.902;14.190;2022-09-23T11:46:01;23.90;42.50
15390;DHT22;7793;40.902;14.190;2022-09-23T11:50:52;23.90;42.50
15390;DHT22;7793;40.902;14.190;2022-09-23T11:53:19;23.90;42.60
15390;DHT22;7793;40.902;14.190;2022-09-23T11:55:43;23.90;41.20
15390;DHT22;7793;40.902;14.190;2022-09-23T11:58:18;23.90;41.20
15390;DHT22;7793;40.902;14.190;2022-09-23T12:00:50;23.90;41.10
15390;DHT22;7793;40.902;14.190;2022-09-23T12:03:22;23.90;41.10
15390;DHT22;7793;40.902;14.190;2022-09-23T12:06:03;23.90;40.90
15390;DHT22;7793;40.902;14.190;2022-09-23T12:08:28;23.90;40.90
15390;DHT22;7793;40.902;14.190;2022-09-23T12:28:39;23.90;40.70
15390;DHT22;7793;40.902;14.190;2022-09-23T12:33:31;23.90;39.60
15390;DHT22;7793;40.902;14.190;2022-09-23T12:38:25;23.90;39.70
15390;DHT22;7793;40.902;14.190;2022-09-23T12:40:47;24.00;40.40
15390;DHT22;7793;40.902;14.190;2022-09-23T12:43:32;24.00;40.40
15390;DHT22;7793;40.902;14.190;2022-09-23T12:51:18;24.00;40.30
15390;DHT22;7793;40.902;14.190;2022-09-23T12:56:01;24.00;41.30
15390;DHT22;7793;40.902;14.190;2022-09-23T12:58:37;24.00;41.20
15390;DHT22;7793;40.902;14.190;2022-09-23T13:03:40;24.00;41.00
15390;DHT22;7793;40.902;14.190;2022-09-23T13:06:20;24.00;41.20
15390;DHT22;7793;40.902;14.190;2022-09-23T13:08:59;24.00;41.30
15390;DHT22;7793;40.902;14.190;2022-09-23T13:11:26;24.00;41.00
15390;DHT22;7793;40.902;14.190;2022-09-23T13:13:48;24.00;40.30
15390;DHT22;7793;40.902;14.190;2022-09-23T13:16:18;24.00;40.30
15390;DHT22;7793;40.902;14.190;2022-09-23T13:21:15;24.00;40.70
15390;DHT22;7793;40.902;14.190;2022-09-23T13:24:09;24.10;41.30
15390;DHT22;7793;40.902;14.190;2022-09-23T13:26:24;24.00;41.20
15390;DHT22;7793;40.902;14.190;2022-09-23T13:28:55;24.00;41.90
15390;DHT22;7793;40.902;14.190;2022-09-23T13:31:19;24.00;42.10
15390;DHT22;7793;40.902;14.190;2022-09-23T13:36:09;24.10;42.20
15390;DHT22;7793;40.902;14.190;2022-09-23T13:38:31;24.10;42.30
15390;DHT22;7793;40.902;14.190;2022-09-23T13:40:53;24.10;42.40
15390;DHT22;7793;40.902;14.190;2022-09-23T13:45:37;24.20;42.50
15390;DHT22;7793;40.902;14.190;2022-09-23T13:48:00;24.20;42.20
15390;DHT22;7793;40.902;14.190;2022-09-23T13:50:23;24.20;42.70
15390;DHT22;7793;40.902;14.190;2022-09-23T13:52:44;24.20;43.10
15390;DHT22;7793;40.902;14.190;2022-09-23T13:55:22;24.10;43.00
15390;DHT22;7793;40.902;14.190;2022-09-23T13:57:43;24.10;43.20
15390;DHT22;7793;40.902;14.190;2022-09-23T14:02:40;24.10;43.20
15390;DHT22;7793;40.902;14.190;2022-09-23T14:05:08;24.10;43.30
15390;DHT22;7793;40.902;14.190;2022-09-23T14:07:30;24.00;43.10
15390;DHT22;7793;40.902;14.190;2022-09-23T14:09:53;24.10;43.30
15390;DHT22;7793;40.902;14.190;2022-09-23T14:12:15;24.10;43.40
15390;DHT22;7793;40.902;14.190;2022-09-23T14:14:41;24.10;43.20
15390;DHT22;7793;40.902;14.190;2022-09-23T14:17:03;24.10;43.40
15390;DHT22;7793;40.902;14.190;2022-09-23T14:19:25;24.10;43.30
15390;DHT22;7793;40.902;14.190;2022-09-23T14:21:48;24.10;43.50
15390;DHT22;7793;40.902;14.190;2022-09-23T14:26:30;24.10;43.60
15390;DHT22;7793;40.902;14.190;2022-09-23T14:28:51;24.10;43.50
15390;DHT22;7793;40.902;14.190;2022-09-23T14:31:13;24.10;43.60
15390;DHT22;7793;40.902;14.190;2022-09-23T14:33:37;24.10;43.30
15390;DHT22;7793;40.902;14.190;2022-09-23T14:36:03;24.10;43.30
15390;DHT22;7793;40.902;14.190;2022-09-23T14:38:27;24.10;43.20
15390;DHT22;7793;40.902;14.190;2022-09-23T14:41:14;24.10;43.50
15390;DHT22;7793;40.902;14.190;2022-09-23T14:43:37;24.20;43.70
15390;DHT22;7793;40.902;14.190;2022-09-23T14:45:58;24.10;43.70
15390;DHT22;7793;40.902;14.190;2022-09-23T14:50:48;24.10;44.10
15390;DHT22;7793;40.902;14.190;2022-09-23T14:55:42;24.40;44.70
15390;DHT22;7793;40.902;14.190;2022-09-23T14:58:04;24.50;44.80
15390;DHT22;7793;40.902;14.190;2022-09-23T15:00:26;24.60;44.70
15390;DHT22;7793;40.902;14.190;2022-09-23T15:02:58;24.60;44.60
15390;DHT22;7793;40.902;14.190;2022-09-23T15:05:20;24.60;44.50
15390;DHT22;7793;40.902;14.190;2022-09-23T15:07:43;24.70;44.70
15390;DHT22;7793;40.902;14.190;2022-09-23T15:10:06;24.70;44.70
15390;DHT22;7793;40.902;14.190;2022-09-23T15:12:29;24.70;44.80
15390;DHT22;7793;40.902;14.190;2022-09-23T15:14:51;24.70;44.80
15390;DHT22;7793;40.902;14.190;2022-09-23T15:17:23;24.50;43.10
15390;DHT22;7793;40.902;14.190;2022-09-23T15:19:47;24.30;43.20
15390;DHT22;7793;40.902;14.190;2022-09-23T15:22:12;24.20;43.90
15390;DHT22;7793;40.902;14.190;2022-09-23T15:24:37;24.20;44.40
15390;DHT22;7793;40.902;14.190;2022-09-23T15:26:59;24.10;44.60
15390;DHT22;7793;40.902;14.190;2022-09-23T15:29:20;24.10;44.80
15390;DHT22;7793;40.902;14.190;2022-09-23T15:31:41;24.10;44.80
15390;DHT22;7793;40.902;14.190;2022-09-23T15:34:02;24.00;44.80
15390;DHT22;7793;40.902;14.190;2022-09-23T15:36:25;24.00;44.80
15390;DHT22;7793;40.902;14.190;2022-09-23T15:38:47;24.00;44.80
15390;DHT22;7793;40.902;14.190;2022-09-23T15:41:09;24.00;44.50
15390;DHT22;7793;40.902;14.190;2022-09-23T15:43:30;24.10;43.80
15390;DHT22;7793;40.902;14.190;2022-09-23T15:45:52;24.00;44.40
15390;DHT22;7793;40.902;14.190;2022-09-23T15:48:21;24.00;43.90
15390;DHT22;7793;40.902;14.190;2022-09-23T15:50:43;24.00;44.60
15390;DHT22;7793;40.902;14.190;2022-09-23T15:53:06;24.00;44.70
15390;DHT22;7793;40.902;14.190;2022-09-23T15:55:27;24.00;44.30
15390;DHT22;7793;40.902;14.190;2022-09-23T15:57:48;24.00;44.20
15390;DHT22;7793;40.902;14.190;2022-09-23T16:00:09;24.00;44.10
15390;DHT22;7793;40.902;14.190;2022-09-23T16:02:32;24.00;44.10
15390;DHT22;7793;40.902;14.190;2022-09-23T16:04:53;23.90;44.20
15390;DHT22;7793;40.902;14.190;2022-09-23T16:07:14;23.90;44.20
15390;DHT22;7793;40.902;14.190;2022-09-23T16:09:36;24.00;44.70
15390;DHT22;7793;40.902;14.190;2022-09-23T16:11:57;24.00;45.00
15390;DHT22;7793;40.902;14.190;2022-09-23T16:14:23;24.00;44.00
15390;DHT22;7793;40.902;14.190;2022-09-23T16:16:43;24.00;44.40
15390;DHT22;7793;40.902;14.190;2022-09-23T16:19:07;24.00;44.10
15390;DHT22;7793;40.902;14.190;2022-09-23T16:21:28;24.00;44.30
15390;DHT22;7793;40.902;14.190;2022-09-23T16:23:49;24.00;44.30
15390;DHT22;7793;40.902;14.190;2022-09-23T16:28:33;24.00;44.70
15390;DHT22;7793;40.902;14.190;2022-09-23T16:30:56;23.90;44.40
15390;DHT22;7793;40.902;14.190;2022-09-23T16:33:17;24.00;44.80
15390;DHT22;7793;40.902;14.190;2022-09-23T16:35:39;24.00;44.70
15390;DHT22;7793;40.902;14.190;2022-09-23T16:38:00;24.00;44.30
15390;DHT22;7793;40.902;14.190;2022-09-23T16:40:22;24.00;44.40
15390;DHT22;7793;40.902;14.190;2022-09-23T16:42:44;24.00;44.60
15390;DHT22;7793;40.902;14.190;2022-09-23T16:45:06;24.00;44.20
15390;DHT22;7793;40.902;14.190;2022-09-23T16:47:35;24.00;44.30
15390;DHT22;7793;40.902;14.190;2022-09-23T16:50:18;24.00;44.60
15390;DHT22;7793;40.902;14.190;2022-09-23T16:52:40;24.10;44.40
15390;DHT22;7793;40.902;14.190;2022-09-23T16:55:01;24.20;44.40
15390;DHT22;7793;40.902;14.190;2022-09-23T16:57:22;24.30;44.50
15390;DHT22;7793;40.902;14.190;2022-09-23T16:59:43;24.30;44.50
15390;DHT22;7793;40.902;14.190;2022-09-23T17:02:23;24.40;44.50
15390;DHT22;7793;40.902;14.190;2022-09-23T17:05:03;24.40;44.70
15390;DHT22;7793;40.902;14.190;2022-09-23T17:07:25;24.40;44.80
15390;DHT22;7793;40.902;14.190;2022-09-23T17:09:46;24.40;44.90
15390;DHT22;7793;40.902;14.190;2022-09-23T17:12:12;24.40;45.00
15390;DHT22;7793;40.902;14.190;2022-09-23T17:14:36;24.40;44.70
15390;DHT22;7793;40.902;14.190;2022-09-23T17:16:58;24.40;44.80
15390;DHT22;7793;40.902;14.190;2022-09-23T17:19:19;24.40;44.80
15390;DHT22;7793;40.902;14.190;2022-09-23T17:21:40;24.40;45.10
15390;DHT22;7793;40.902;14.190;2022-09-23T17:24:02;24.40;45.00
15390;DHT22;7793;40.902;14.190;2022-09-23T17:26:24;24.40;45.10
15390;DHT22;7793;40.902;14.190;2022-09-23T17:28:45;24.40;44.40
15390;DHT22;7793;40.902;14.190;2022-09-23T17:31:07;24.30;43.50
15390;DHT22;7793;40.902;14.190;2022-09-23T17:33:29;24.10;43.70
15390;DHT22;7793;40.902;14.190;2022-09-23T17:35:51;24.10;43.70
15390;DHT22;7793;40.902;14.190;2022-09-23T17:38:12;24.00;44.00
15390;DHT22;7793;40.902;14.190;2022-09-23T17:40:33;24.00;44.60
15390;DHT22;7793;40.902;14.190;2022-09-23T17:43:01;24.00;44.80
15390;DHT22;7793;40.902;14.190;2022-09-23T17:45:22;24.00;45.20
15390;DHT22;7793;40.902;14.190;2022-09-23T17:47:43;24.00;44.70
15390;DHT22;7793;40.902;14.190;2022-09-23T17:50:14;24.00;45.00
15390;DHT22;7793;40.902;14.190;2022-09-23T17:52:35;24.00;44.60
15390;DHT22;7793;40.902;14.190;2022-09-23T17:54:56;24.00;44.40
15390;DHT22;7793;40.902;14.190;2022-09-23T17:57:17;23.90;44.20
15390;DHT22;7793;40.902;14.190;2022-09-23T17:59:38;23.90;45.00
15390;DHT22;7793;40.902;14.190;2022-09-23T18:01:59;23.90;45.20
15390;DHT22;7793;40.902;14.190;2022-09-23T18:04:20;23.90;44.50
15390;DHT22;7793;40.902;14.190;2022-09-23T18:06:41;23.90;44.70
15390;DHT22;7793;40.902;14.190;2022-09-23T18:09:03;23.80;45.10
15390;DHT22;7793;40.902;14.190;2022-09-23T18:11:26;23.80;44.50
15390;DHT22;7793;40.902;14.190;2022-09-23T18:13:51;23.80;45.10
15390;DHT22;7793;40.902;14.190;2022-09-23T18:16:12;23.80;45.00
15390;DHT22;7793;40.902;14.190;2022-09-23T18:18:33;23.80;44.90
15390;DHT22;7793;40.902;14.190;2022-09-23T18:21:00;23.80;44.90
15390;DHT22;7793;40.902;14.190;2022-09-23T18:23:22;23.90;44.60
15390;DHT22;7793;40.902;14.190;2022-09-23T18:25:45;23.80;44.70
15390;DHT22;7793;40.902;14.190;2022-09-23T18:28:06;23.80;44.50
15390;DHT22;7793;40.902;14.190;2022-09-23T18:30:28;23.80;44.80
15390;DHT22;7793;40.902;14.190;2022-09-23T18:32:52;23.80;44.50
15390;DHT22;7793;40.902;14.190;2022-09-23T18:35:12;23.80;44.70
15390;DHT22;7793;40.902;14.190;2022-09-23T18:37:33;23.80;45.00
15390;DHT22;7793;40.902;14.190;2022-09-23T18:39:54;23.80;44.70
15390;DHT22;7793;40.902;14.190;2022-09-23T18:42:15;23.80;44.70
15390;DHT22;7793;40.902;14.190;2022-09-23T18:44:36;23.80;44.70
15390;DHT22;7793;40.902;14.190;2022-09-23T18:46:57;23.80;44.50
15390;DHT22;7793;40.902;14.190;2022-09-23T18:49:19;23.80;44.80
15390;DHT22;7793;40.902;14.190;2022-09-23T18:51:59;23.80;44.70
15390;DHT22;7793;40.902;14.190;2022-09-23T18:54:24;23.70;44.70
15390;DHT22;7793;40.902;14.190;2022-09-23T18:56:45;23.70;44.70
15390;DHT22;7793;40.902;14.190;2022-09-23T18:59:07;23.80;44.80
15390;DHT22;7793;40.902;14.190;2022-09-23T19:01:29;23.80;45.00
15390;DHT22;7793;40.902;14.190;2022-09-23T19:03:56;23.80;44.80
15390;DHT22;7793;40.902;14.190;2022-09-23T19:06:17;23.80;44.60
15390;DHT22;7793;40.902;14.190;2022-09-23T19:08:41;23.80;44.90
15390;DHT22;7793;40.902;14.190;2022-09-23T19:11:04;23.80;44.50
15390;DHT22;7793;40.902;14.190;2022-09-23T19:13:25;23.80;44.70
15390;DHT22;7793;40.902;14.190;2022-09-23T19:15:46;23.70;44.60
15390;DHT22;7793;40.902;14.190;2022-09-23T19:18:08;23.70;44.30
15390;DHT22;7793;40.902;14.190;2022-09-23T19:20:29;23.70;44.60
15390;DHT22;7793;40.902;14.190;2022-09-23T19:22:50;23.70;44.70
15390;DHT22;7793;40.902;14.190;2022-09-23T19:25:11;23.70;44.70
15390;DHT22;7793;40.902;14.190;2022-09-23T19:27:32;23.70;44.40
15390;DHT22;7793;40.902;14.190;2022-09-23T19:29:55;23.70;44.70
15390;DHT22;7793;40.902;14.190;2022-09-23T19:32:17;23.70;44.90
15390;DHT22;7793;40.902;14.190;2022-09-23T19:34:38;23.70;44.60
15390;DHT22;7793;40.902;14.190;2022-09-23T19:36:59;23.70;45.10
15390;DHT22;7793;40.902;14.190;2022-09-23T19:39:25;23.70;44.60
15390;DHT22;7793;40.902;14.190;2022-09-23T19:41:47;23.70;44.30
15390;DHT22;7793;40.902;14.190;2022-09-23T19:44:08;23.70;44.40
15390;DHT22;7793;40.902;14.190;2022-09-23T19:46:31;23.70;44.50
15390;DHT22;7793;40.902;14.190;2022-09-23T19:48:53;23.70;44.60
15390;DHT22;7793;40.902;14.190;2022-09-23T19:51:14;23.60;44.30
15390;DHT22;7793;40.902;14.190;2022-09-23T19:53:36;23.70;44.30
15390;DHT22;7793;40.902;14.190;2022-09-23T19:55:57;23.70;44.30
15390;DHT22;7793;40.902;14.190;2022-09-23T19:58:22;23.60;44.30
15390;DHT22;7793;40.902;14.190;2022-09-23T20:00:43;23.60;44.10
15390;DHT22;7793;40.902;14.190;2022-09-23T20:03:04;23.60;44.30
15390;DHT22;7793;40.902;14.190;2022-09-23T20:05:25;23.60;44.00
15390;DHT22;7793;40.902;14.190;2022-09-23T20:07:49;23.60;43.90
15390;DHT22;7793;40.902;14.190;2022-09-23T20:10:10;23.60;43.90
15390;DHT22;7793;40.902;14.190;2022-09-23T20:12:32;23.60;43.70
15390;DHT22;7793;40.902;14.190;2022-09-23T20:14:53;23.70;43.70
15390;DHT22;7793;40.902;14.190;2022-09-23T20:17:14;23.60;43.80
15390;DHT22;7793;40.902;14.190;2022-09-23T20:19:37;23.60;43.70
15390;DHT22;7793;40.902;14.190;2022-09-23T20:21:58;23.60;43.60
15390;DHT22;7793;40.902;14.190;2022-09-23T20:24:38;23.60;43.80
15390;DHT22;7793;40.902;14.190;2022-09-23T20:26:59;23.60;43.60
15390;DHT22;7793;40.902;14.190;2022-09-23T20:29:29;23.60;43.60
15390;DHT22;7793;40.902;14.190;2022-09-23T20:31:50;23.60;43.60
15390;DHT22;7793;40.902;14.190;2022-09-23T20:34:11;23.60;43.70
15390;DHT22;7793;40.902;14.190;2022-09-23T20:36:32;23.60;43.70
15390;DHT22;7793;40.902;14.190;2022-09-23T20:38:55;23.60;43.60
15390;DHT22;7793;40.902;14.190;2022-09-23T20:41:17;23.60;44.00
15390;DHT22;7793;40.902;14.190;2022-09-23T20:43:37;23.60;44.30
15390;DHT22;7793;40.902;14.190;2022-09-23T20:46:00;23.60;43.90
15390;DHT22;7793;40.902;14.190;2022-09-23T20:48:22;23.50;43.90
15390;DHT22;7793;40.902;14.190;2022-09-23T20:50:42;23.50;44.00
15390;DHT22;7793;40.902;14.190;2022-09-23T20:53:04;23.60;44.20
15390;DHT22;7793;40.902;14.190;2022-09-23T20:55:26;23.50;44.10
15390;DHT22;7793;40.902;14.190;2022-09-23T20:57:48;23.50;44.10
15390;DHT22;7793;40.902;14.190;2022-09-23T21:00:10;23.50;44.20
15390;DHT22;7793;40.902;14.190;2022-09-23T21:02:31;23.50;44.10
15390;DHT22;7793;40.902;14.190;2022-09-23T21:04:52;23.50;44.10
15390;DHT22;7793;40.902;14.190;2022-09-23T21:07:13;23.50;44.10
15390;DHT22;7793;40.902;14.190;2022-09-23T21:09:34;23.50;44.20
15390;DHT22;7793;40.902;14.190;2022-09-23T21:11:55;23.50;44.10
15390;DHT22;7793;40.902;14.190;2022-09-23T21:14:16;23.50;44.10
15390;DHT22;7793;40.902;14.190;2022-09-23T21:16:37;23.50;44.20
15390;DHT22;7793;40.902;14.190;2022-09-23T21:18:58;23.50;44.10
15390;DHT22;7793;40.902;14.190;2022-09-23T21:21:19;23.50;44.20
15390;DHT22;7793;40.902;14.190;2022-09-23T21:23:42;23.50;44.20
15390;DHT22;7793;40.902;14.190;2022-09-23T21:26:07;23.50;44.10
15390;DHT22;7793;40.902;14.190;2022-09-23T21:28:29;23.50;44.10
15390;DHT22;7793;40.902;14.190;2022-09-23T21:30:51;23.50;44.20
15390;DHT22;7793;40.902;14.190;2022-09-23T21:33:12;23.50;44.30
15390;DHT22;7793;40.902;14.190;2022-09-23T21:35:35;23.50;44.20
15390;DHT22;7793;40.902;14.190;2022-09-23T21:38:01;23.50;44.20
15390;DHT22;7793;40.902;14.190;2022-09-23T21:40:22;23.50;44.20
